createdAt,value
2019-03-09T00:01:43.815Z,37.20
2019-03-09T00:06:45.440Z,27.17
2019-03-09T00:11:46.998Z,38.73
2019-03-09T00:16:48.947Z,57.90
2019-03-09T00:21:50.559Z,32.13
2019-03-09T00:26:56.729Z,31.37
2019-03-09T00:32:03.275Z,30.50
2019-03-09T00:37:05.147Z,37.10
2019-03-09T00:42:06.820Z,68.03
2019-03-09T00:47:08.527Z,73.10
2019-03-09T00:52:10.216Z,48.07
2019-03-09T00:57:11.770Z,38.43
2019-03-09T01:02:13.316Z,33.70
2019-03-09T01:07:14.948Z,33.40
2019-03-09T01:12:16.602Z,35.60
2019-03-09T01:17:18.299Z,31.80
2019-03-09T01:22:19.849Z,26.17
2019-03-09T01:27:21.500Z,22.53
2019-03-09T01:32:23.148Z,22.97
2019-03-09T01:37:24.696Z,19.50
2019-03-09T01:42:26.256Z,15.67
2019-03-09T01:47:27.915Z,17.83
2019-03-09T01:52:29.575Z,14.40
2019-03-09T01:57:31.131Z,15.03
2019-03-09T02:02:32.681Z,12.43
2019-03-09T02:07:34.527Z,13.00
2019-03-09T02:12:36.284Z,13.80
2019-03-09T02:17:37.877Z,12.50
2019-03-09T02:22:39.583Z,11.70
2019-03-09T02:27:41.244Z,9.63
2019-03-09T02:32:42.993Z,10.43
2019-03-09T02:37:44.795Z,8.17
2019-03-09T02:42:46.345Z,15.57
2019-03-09T02:47:47.933Z,11.00
2019-03-09T02:52:50.762Z,13.93
2019-03-09T02:57:52.318Z,18.93
2019-03-09T03:03:07.007Z,18.27
2019-03-09T03:08:08.732Z,17.67
2019-03-09T03:13:10.291Z,16.67
2019-03-09T03:18:11.907Z,19.73
2019-03-09T03:23:13.557Z,15.87
2019-03-09T03:28:15.123Z,19.70
2019-03-09T03:33:16.823Z,13.17
2019-03-09T03:38:18.521Z,13.33
2019-03-09T03:43:20.122Z,16.90
2019-03-09T03:48:22.676Z,18.57
2019-03-09T03:53:24.284Z,11.23
2019-03-09T03:58:25.833Z,13.63
2019-03-09T04:03:27.387Z,10.27
2019-03-09T04:08:29.650Z,12.70
2019-03-09T04:13:31.768Z,11.40
2019-03-09T04:18:33.320Z,10.13
2019-03-09T04:23:34.915Z,11.03
2019-03-09T04:28:36.513Z,11.87
2019-03-09T04:33:38.305Z,15.33
2019-03-09T04:38:39.860Z,7.63
2019-03-09T04:43:41.427Z,9.43
2019-03-09T04:48:43.088Z,9.37
2019-03-09T04:53:44.652Z,10.40
2019-03-09T04:58:46.207Z,9.03
2019-03-09T05:03:56.293Z,6.43
2019-03-09T05:09:12.232Z,12.83
2019-03-09T05:14:13.892Z,6.87
2019-03-09T05:19:15.472Z,8.00
2019-03-09T05:24:17.008Z,7.30
2019-03-09T05:29:18.578Z,7.67
2019-03-09T05:34:20.358Z,5.90
2019-03-09T05:39:21.949Z,6.43
2019-03-09T05:44:23.770Z,6.23
2019-03-09T05:49:25.424Z,10.53
2019-03-09T05:54:27.017Z,11.07
2019-03-09T05:59:28.660Z,5.93
2019-03-09T06:04:30.224Z,7.63
2019-03-09T06:09:31.853Z,7.80
2019-03-09T06:14:33.708Z,8.37
2019-03-09T06:19:35.297Z,6.93
2019-03-09T06:24:36.856Z,5.57
2019-03-09T06:29:38.433Z,8.70
2019-03-09T06:34:39.976Z,7.00
2019-03-09T06:39:41.776Z,7.87
2019-03-09T06:44:43.528Z,6.03
2019-03-09T06:49:46.294Z,6.53
2019-03-09T06:54:47.894Z,6.77
2019-03-09T06:59:49.551Z,6.07
2019-03-09T07:04:51.186Z,6.73
2019-03-09T07:09:52.913Z,5.93
2019-03-09T07:15:03.191Z,7.13
2019-03-09T07:20:12.625Z,8.83
2019-03-09T07:25:12.119Z,5.93
2019-03-09T07:30:15.933Z,7.07
2019-03-09T07:35:17.684Z,6.10
2019-03-09T07:40:19.440Z,4.00
2019-03-09T07:45:21.003Z,6.47
2019-03-09T07:50:22.695Z,7.40
2019-03-09T07:55:24.276Z,5.67
2019-03-09T08:00:26.030Z,6.87
2019-03-09T08:05:27.812Z,6.10
2019-03-09T08:10:30.500Z,6.40
2019-03-09T08:15:32.261Z,5.47
2019-03-09T08:20:33.856Z,5.27
2019-03-09T08:25:35.420Z,4.67
2019-03-09T08:30:37.091Z,8.07
2019-03-09T08:35:38.646Z,3.57
2019-03-09T08:40:40.280Z,3.87
2019-03-09T08:45:41.835Z,8.47
2019-03-09T08:50:43.605Z,12.40
2019-03-09T08:55:45.195Z,3.87
2019-03-09T09:00:46.771Z,7.10
2019-03-09T09:05:48.428Z,9.17
2019-03-09T09:10:50.933Z,6.07
2019-03-09T09:15:52.799Z,6.57
2019-03-09T09:20:54.361Z,10.57
2019-03-09T09:25:55.911Z,7.90
2019-03-09T09:30:57.497Z,5.10
2019-03-09T09:35:59.444Z,7.43
2019-03-09T09:41:01.104Z,9.00
2019-03-09T09:46:02.860Z,7.17
2019-03-09T09:51:04.627Z,7.77
2019-03-09T09:56:06.180Z,7.83
2019-03-09T10:01:07.805Z,5.30
2019-03-09T10:06:09.403Z,8.07
2019-03-09T10:11:12.233Z,6.07
2019-03-09T10:16:13.798Z,4.13
2019-03-09T10:21:15.629Z,5.53
2019-03-09T10:26:18.714Z,7.90
2019-03-09T10:31:20.749Z,7.53
2019-03-09T10:36:24.217Z,6.97
2019-03-09T10:41:26.303Z,5.90
2019-03-09T10:46:31.142Z,9.70
2019-03-09T10:51:32.688Z,10.63
2019-03-09T10:56:35.798Z,5.83
2019-03-09T11:01:38.691Z,4.57
2019-03-09T11:06:42.179Z,6.90
2019-03-09T11:11:44.936Z,4.90
2019-03-09T11:16:48.423Z,4.40
2019-03-09T11:21:49.974Z,6.97
2019-03-09T11:26:53.224Z,3.67
2019-03-09T11:31:54.996Z,7.10
2019-03-09T11:36:56.884Z,20.73
2019-03-09T11:42:02.613Z,10.07
2019-03-09T11:47:04.777Z,6.43
2019-03-09T11:52:06.434Z,3.47
2019-03-09T11:57:09.313Z,10.17
2019-03-09T12:02:12.817Z,4.90
2019-03-09T12:07:14.720Z,5.20
2019-03-09T12:12:17.848Z,7.23
2019-03-09T12:17:21.024Z,7.30
2019-03-09T12:22:24.319Z,8.40
2019-03-09T12:27:27.302Z,7.23
2019-03-09T12:32:28.906Z,17.03
2019-03-09T12:37:33.160Z,31.47
2019-03-09T12:42:35.141Z,16.80
2019-03-09T12:47:38.662Z,20.33
2019-03-09T12:52:40.533Z,8.37
2019-03-09T12:57:44.551Z,10.47
2019-03-09T13:02:46.538Z,6.53
2019-03-09T13:07:50.395Z,6.70
2019-03-09T13:12:53.188Z,6.20
2019-03-09T13:17:54.867Z,27.03
2019-03-09T13:22:56.740Z,8.00
2019-03-09T13:28:01.317Z,6.77
2019-03-09T13:33:04.932Z,5.93
2019-03-09T13:38:07.689Z,15.73
2019-03-09T13:43:09.719Z,7.80
2019-03-09T13:48:14.682Z,9.63
2019-03-09T13:53:16.301Z,18.27
2019-03-09T13:58:19.153Z,9.80
2019-03-09T14:03:20.860Z,5.93
2019-03-09T14:08:24.057Z,14.53
2019-03-09T14:13:25.967Z,8.77
2019-03-09T14:18:31.024Z,10.70
2019-03-09T14:23:35.869Z,14.23
2019-03-09T14:28:37.420Z,14.93
2019-03-09T14:33:40.274Z,15.97
2019-03-09T14:38:42.620Z,16.03
2019-03-09T14:43:45.178Z,8.93
2019-03-09T14:48:47.327Z,9.43
2019-03-09T14:53:52.480Z,6.77
2019-03-09T14:58:54.209Z,12.67
2019-03-09T15:03:57.660Z,11.90
2019-03-09T15:09:01.125Z,15.10
2019-03-09T15:14:04.752Z,34.83
2019-03-09T15:19:07.370Z,23.20
2019-03-09T15:24:08.934Z,11.77
2019-03-09T15:29:10.801Z,13.13
2019-03-09T15:34:12.652Z,11.23
2019-03-09T15:39:15.763Z,10.63
2019-03-09T15:44:18.850Z,16.07
2019-03-09T15:49:20.648Z,12.73
2019-03-09T15:54:22.363Z,12.87
2019-03-09T15:59:28.748Z,18.77
2019-03-09T16:04:33.193Z,20.37
2019-03-09T16:09:35.821Z,18.73
2019-03-09T16:14:37.492Z,14.67
2019-03-09T16:19:41.469Z,23.43
2019-03-09T16:24:44.131Z,23.87
2019-03-09T16:29:46.244Z,16.70
2019-03-09T16:34:49.697Z,14.67
2019-03-09T16:39:55.033Z,13.60
2019-03-09T16:44:56.650Z,11.73
2019-03-09T16:49:58.203Z,12.93
2019-03-09T16:55:01.543Z,12.60
2019-03-09T17:00:21.321Z,12.63
2019-03-09T17:05:23.293Z,14.37
2019-03-09T17:10:25.064Z,12.27
2019-03-09T17:15:26.791Z,10.50
2019-03-09T17:20:28.370Z,15.13
2019-03-09T17:25:29.923Z,11.50
2019-03-09T17:30:31.486Z,10.70
2019-03-09T17:35:33.068Z,11.87
2019-03-09T17:40:34.621Z,13.17
2019-03-09T17:45:36.222Z,14.70
2019-03-09T17:50:37.765Z,9.10
2019-03-09T17:55:39.332Z,14.83
2019-03-09T18:00:44.826Z,16.07
2019-03-09T18:05:46.391Z,10.77
2019-03-09T18:10:53.031Z,10.37
2019-03-09T18:15:54.913Z,14.03
2019-03-09T18:20:56.504Z,13.20
2019-03-09T18:25:58.064Z,31.37
2019-03-09T18:30:59.641Z,36.07
2019-03-09T18:36:02.907Z,13.47
2019-03-09T18:41:06.487Z,10.33
2019-03-09T18:46:08.337Z,16.47
2019-03-09T18:51:13.721Z,13.50
2019-03-09T18:56:16.372Z,9.33
2019-03-09T19:01:18.201Z,8.27
2019-03-09T19:06:21.266Z,9.37
2019-03-09T19:11:23.077Z,8.80
2019-03-09T19:16:27.414Z,9.80
2019-03-09T19:21:31.523Z,8.83
2019-03-09T19:26:34.131Z,12.70
2019-03-09T19:31:36.932Z,15.73
2019-03-09T19:36:39.835Z,11.03
2019-03-09T19:41:44.743Z,11.03
2019-03-09T19:46:46.319Z,11.00
2019-03-09T19:51:49.100Z,10.73
2019-03-09T19:56:53.866Z,24.50
2019-03-09T20:01:56.724Z,13.33
2019-03-09T20:06:59.662Z,10.13
2019-03-09T20:12:02.524Z,11.57
2019-03-09T20:17:04.493Z,7.87
2019-03-09T20:22:07.823Z,8.30
2019-03-09T20:27:10.837Z,10.20
2019-03-09T20:32:14.780Z,10.03
2019-03-09T20:37:17.949Z,10.03
2019-03-09T20:42:21.594Z,8.43
2019-03-09T20:47:24.597Z,8.50
2019-03-09T20:52:28.430Z,6.50
2019-03-09T20:57:30.311Z,8.77
2019-03-09T21:02:32.260Z,9.23
2019-03-09T21:07:36.127Z,8.63
2019-03-09T21:13:01.989Z,7.60
2019-03-09T21:18:04.941Z,5.63
2019-03-09T21:23:06.711Z,6.40
2019-03-09T21:28:08.442Z,6.43
2019-03-09T21:33:10.023Z,7.07
2019-03-09T21:38:11.573Z,8.13
2019-03-09T21:43:13.227Z,8.70
2019-03-09T21:48:14.779Z,10.60
2019-03-09T21:53:16.335Z,5.17
2019-03-09T21:58:17.937Z,5.30
2019-03-09T22:03:19.597Z,7.93
2019-03-09T22:08:21.280Z,2.90
2019-03-09T22:13:23.100Z,4.00
2019-03-09T22:18:24.853Z,4.63
2019-03-09T22:23:26.747Z,3.00
2019-03-09T22:28:28.303Z,3.53
2019-03-09T22:33:29.856Z,5.63
2019-03-09T22:38:31.436Z,5.97
2019-03-09T22:43:33.033Z,8.40
2019-03-09T22:48:34.652Z,8.83
2019-03-09T22:53:36.396Z,5.13
2019-03-09T22:58:38.496Z,3.23
2019-03-09T23:03:40.245Z,3.60
2019-03-09T23:08:41.812Z,4.43
2019-03-09T23:13:43.494Z,6.37
2019-03-09T23:18:45.163Z,4.37
2019-03-09T23:23:46.762Z,3.80
2019-03-09T23:28:48.563Z,4.23
2019-03-09T23:33:51.225Z,4.60
2019-03-09T23:38:52.779Z,2.43
2019-03-09T23:43:54.339Z,3.33
2019-03-09T23:48:57.036Z,1.93
2019-03-09T23:53:58.663Z,1.70
2019-03-09T23:59:00.224Z,3.83
